Time;durP1;ratioP1;P1;durP2;ratioP2;P2;SDS_P1;SDS_P2;PMS_P1;PMS_P2;Temp;Humidity;BMP_temperature;BMP_pressure;BME280_temperature;BME280_humidity;BME280_pressure;Samples;Min_cycle;Max_cycle;Signal;HPM_P1;HPM_P2
2024/04/18 00:32:44;;;;;;;10.88;5.97;;;;;;;3.87;82.86;98101.69;4940171;28;103143;-71
2024/04/18 00:35:28;;;;;;;11.60;5.97;;;;;;;3.84;82.84;98092.31;4930854;28;104760;-72
2024/04/18 00:38:09;;;;;;;9.00;5.55;;;;;;;4.06;82.48;98104.28;4924278;28;105645;-72
2024/04/18 00:40:39;;;;;;;11.70;6.53;;;;;;;4.04;82.28;98093.09;4926590;28;103143;-72
2024/04/18 00:43:15;;;;;;;10.68;6.28;;;;;;;4.14;81.80;98090.47;4927487;28;102780;-72
2024/04/18 00:45:42;;;;;;;8.98;4.78;;;;;;;4.14;81.66;98093.91;4923679;28;103198;-72
2024/04/18 00:48:25;;;;;;;9.93;6.07;;;;;;;3.98;81.45;98099.75;4926772;28;102871;-72
2024/04/18 00:50:52;;;;;;;8.98;6.30;;;;;;;4.16;81.65;98088.50;4925954;28;102869;-73
2024/04/18 00:53:18;;;;;;;13.27;6.63;;;;;;;3.81;81.85;98089.97;4925201;28;102881;-72
2024/04/18 00:55:49;;;;;;;7.50;4.55;;;;;;;4.13;82.12;98089.63;4914034;28;103593;-72
2024/04/18 00:58:15;;;;;;;7.55;4.55;;;;;;;4.29;81.37;98090.81;4925474;28;103888;-72
2024/04/18 01:00:43;;;;;;;7.00;4.78;;;;;;;4.43;81.17;98086.94;4926387;28;104496;-72
2024/04/18 01:07:53;;;;;;;9.48;5.80;;;;;;;4.02;83.04;98095.03;4941104;28;107620;-72
2024/04/18 01:10:22;;;;;;;9.27;5.93;;;;;;;4.10;82.42;98096.94;4929252;28;103297;-72
2024/04/18 01:12:58;;;;;;;11.77;6.75;;;;;;;4.07;81.99;98092.81;4908306;28;102937;-72
2024/04/18 01:35:01;;;;;;;7.85;5.05;;;;;;;4.49;80.72;98102.06;4861273;28;102960;-71
2024/04/18 01:46:55;;;;;;;7.82;5.13;;;;;;;4.44;80.77;98099.03;4911214;28;102742;-72
2024/04/18 01:49:30;;;;;;;8.32;4.32;;;;;;;4.41;80.49;98100.16;4922443;28;102953;-72
2024/04/18 01:51:56;;;;;;;6.60;3.80;;;;;;;4.45;80.22;98101.53;4902962;28;104664;-72
2024/04/18 01:54:33;;;;;;;5.87;3.27;;;;;;;4.57;80.10;98098.72;4920378;28;103329;-64
2024/04/18 01:56:59;;;;;;;5.72;2.90;;;;;;;4.63;79.43;98106.03;4953572;28;103153;-64
2024/04/18 01:59:44;;;;;;;6.35;2.95;;;;;;;4.63;79.05;98119.94;4930112;28;102917;-64
2024/04/18 02:02:15;;;;;;;5.88;3.35;;;;;;;4.21;79.07;98114.31;4910879;28;103539;-64
2024/04/18 02:05:01;;;;;;;4.40;2.70;;;;;;;4.29;80.06;98114.41;4922730;28;103062;-64
2024/04/18 02:07:45;;;;;;;5.13;3.47;;;;;;;4.42;80.48;98111.50;4921439;28;102801;-64
2024/04/18 02:10:10;;;;;;;7.10;4.47;;;;;;;4.50;80.65;98116.03;4924346;28;102896;-64
2024/04/18 02:12:56;;;;;;;8.93;5.07;;;;;;;4.56;80.47;98118.88;4917768;28;108982;-64
2024/04/18 02:15:42;;;;;;;;;;;;;;;4.42;80.28;98121.97;4921767;28;107738;-62
2024/04/18 02:18:13;;;;;;;8.77;4.53;;;;;;;4.39;80.64;98117.84;4923509;28;102889;-63
2024/04/18 02:20:42;;;;;;;7.22;4.25;;;;;;;4.54;79.99;98115.56;4924471;28;102833;-63
2024/04/18 02:23:23;;;;;;;9.80;4.88;;;;;;;4.66;79.98;98124.09;4906873;28;103355;-63
2024/04/18 02:25:50;;;;;;;5.00;3.40;;;;;;;4.73;79.25;98119.91;4916441;28;104020;-63
2024/04/18 02:28:15;;;;;;;10.38;4.32;;;;;;;4.62;78.94;98122.72;4895449;28;103723;-63
2024/04/18 02:30:41;;;;;;;8.57;3.90;;;;;;;4.68;79.52;98130.03;4921404;28;103268;-63
2024/04/18 02:33:15;;;;;;;6.15;3.63;;;;;;;4.76;79.09;98124.88;4908711;28;104407;-63
2024/04/18 02:35:44;;;;;;;6.97;3.92;;;;;;;4.39;79.38;98125.72;4901637;28;107734;-63
2024/04/18 02:38:29;;;;;;;6.53;3.70;;;;;;;4.37;80.15;98124.19;4923842;28;102716;-63
2024/04/18 02:50:34;;;;;;;4.53;2.17;;;;;;;4.58;78.71;98130.03;4935145;28;107358;-63
2024/04/18 02:53:02;;;;;;;2.97;1.80;;;;;;;4.66;78.50;98129.31;4904968;28;102782;-63
2024/04/18 02:55:30;;;;;;;4.78;2.35;;;;;;;4.65;78.44;98127.66;4903884;28;102910;-63
2024/04/18 02:57:56;;;;;;;3.28;1.98;;;;;;;4.50;78.15;98132.56;4904413;28;103217;-63
2024/04/18 03:00:22;;;;;;;2.75;1.80;;;;;;;4.51;77.67;98131.59;4919002;28;103549;-62
2024/04/18 03:03:07;;;;;;;4.43;1.80;;;;;;;4.51;78.12;98136.00;4922477;28;102795;-64
2024/04/18 03:05:35;;;;;;;5.45;1.67;;;;;;;4.64;77.46;98131.28;4922231;28;103265;-63
2024/04/18 03:08:00;;;;;;;2.97;1.50;;;;;;;4.70;78.20;98124.63;4923094;28;105264;-64
2024/04/18 03:10:48;;;;;;;2.58;1.80;;;;;;;4.72;77.68;98133.19;4909191;28;109640;-64
2024/04/18 03:18:09;;;;;;;3.65;2.33;;;;;;;4.61;79.05;98132.41;4915006;28;103169;-64
2024/04/18 03:20:35;;;;;;;4.00;1.80;;;;;;;4.73;78.77;98135.66;4884068;28;104517;-64
2024/04/18 03:23:05;;;;;;;3.33;1.83;;;;;;;4.75;78.99;98133.69;4904632;28;103500;-64
2024/04/18 03:25:31;;;;;;;4.70;2.38;;;;;;;4.66;79.21;98124.09;4902074;28;102987;-64
2024/04/18 03:28:03;;;;;;;4.25;2.40;;;;;;;4.71;78.97;98132.34;4901396;28;103087;-64
2024/04/18 03:49:17;;;;;;;5.22;2.78;;;;;;;4.53;79.51;98136.69;4935812;28;107740;-65
2024/04/18 03:51:43;;;;;;;6.03;3.42;;;;;;;4.50;79.56;98137.00;4915903;28;103923;-64
2024/04/18 03:54:29;;;;;;;8.13;3.70;;;;;;;4.37;80.07;98143.38;4892005;28;103026;-64
2024/04/18 03:57:01;;;;;;;5.18;3.28;;;;;;;4.31;79.97;98142.16;4919825;28;103244;-64
2024/04/18 04:09:40;;;;;;;5.30;3.20;;;;;;;4.50;79.10;98152.72;4852491;28;103244;-63
2024/04/18 04:12:06;;;;;;;6.13;3.05;;;;;;;4.52;79.14;98159.50;4844006;28;103016;-64
2024/04/18 04:38:17;;;;;;;5.80;2.88;;;;;;;4.47;80.35;98178.25;4935104;28;107435;-71
2024/04/18 05:09:15;;;;;;;9.48;5.10;;;;;;;4.48;81.29;98227.13;4909331;28;109927;-73
2024/04/18 05:11:41;;;;;;;6.72;4.22;;;;;;;4.73;80.85;98224.88;4909011;28;107819;-73
2024/04/18 05:23:58;;;;;;;10.20;5.65;;;;;;;4.82;80.33;98239.75;4934107;28;107513;-72
2024/04/18 05:26:31;;;;;;;10.68;4.60;;;;;;;4.92;79.78;98238.88;4899607;28;104831;-72
2024/04/18 05:38:36;;;;;;;8.05;5.13;;;;;;;4.92;80.12;98252.81;4909184;28;107590;-72
2024/04/18 05:41:02;;;;;;;11.75;5.50;;;;;;;5.08;80.39;98256.66;4903945;28;103708;-72
2024/04/18 05:43:50;;;;;;;8.60;5.95;;;;;;;4.94;79.57;98257.94;4891146;28;103074;-73
2024/04/18 05:46:16;;;;;;;9.77;6.28;;;;;;;4.69;78.79;98262.84;4902601;28;103013;-72
2024/04/18 05:48:42;;;;;;;11.25;6.22;;;;;;;4.74;80.15;98271.13;4889267;28;105338;-74
2024/04/18 05:51:09;;;;;;;12.93;6.28;;;;;;;4.41;80.15;98270.59;4888422;28;105270;-73
2024/04/18 05:53:51;;;;;;;10.00;6.15;;;;;;;4.43;81.05;98276.53;4890618;28;103130;-73
2024/04/18 05:56:27;;;;;;;8.20;6.28;;;;;;;4.26;80.83;98280.69;4876177;28;103077;-64
2024/04/18 05:58:55;;;;;;;10.82;6.20;;;;;;;4.24;81.18;98287.03;4864018;28;103418;-74
2024/04/18 06:01:24;;;;;;;9.20;6.70;;;;;;;4.34;80.66;98284.41;4910255;28;103150;-73
2024/04/18 06:03:50;;;;;;;9.50;6.43;;;;;;;4.43;81.00;98292.28;4897083;28;104064;-64
2024/04/18 06:06:16;;;;;;;8.70;6.32;;;;;;;4.30;81.09;98303.03;4910686;28;103103;-65
2024/04/18 06:08:50;;;;;;;13.68;6.53;;;;;;;4.40;81.14;98303.06;4916644;28;103256;-64
2024/04/18 06:11:15;;;;;;;10.82;6.32;;;;;;;4.25;81.44;98309.66;4919548;28;103769;-64
2024/04/18 06:13:41;;;;;;;9.30;6.50;;;;;;;4.28;82.17;98310.22;4920276;28;102682;-64
2024/04/18 06:16:07;;;;;;;9.95;6.82;;;;;;;4.22;81.00;98309.91;4921266;28;103102;-64
2024/04/18 06:18:47;;;;;;;8.82;5.82;;;;;;;4.03;81.87;98311.56;4915567;28;107791;-65
2024/04/18 06:21:13;;;;;;;10.82;6.38;;;;;;;4.18;81.59;98313.78;4894116;28;104269;-65
2024/04/18 06:23:39;;;;;;;7.60;5.78;;;;;;;4.18;81.04;98319.03;4915585;28;102873;-65
2024/04/18 06:26:17;;;;;;;9.27;5.85;;;;;;;4.47;81.20;98330.38;4915119;28;103829;-65
2024/04/18 06:28:43;;;;;;;7.82;5.63;;;;;;;4.19;81.59;98320.69;4908146;28;103342;-65
2024/04/18 06:31:09;;;;;;;9.93;5.30;;;;;;;4.47;81.44;98319.88;4899638;28;103528;-65
2024/04/18 06:33:35;;;;;;;7.75;5.43;;;;;;;4.50;81.15;98334.50;4900790;28;102821;-74
2024/04/18 06:36:02;;;;;;;6.95;4.63;;;;;;;4.54;79.67;98325.38;4920653;28;103056;-73
2024/04/18 06:38:30;;;;;;;6.50;4.40;;;;;;;4.25;79.81;98328.03;4918594;28;105385;-73
2024/04/18 06:40:55;;;;;;;5.85;4.28;;;;;;;4.06;79.44;98331.44;4907466;28;103871;-73
2024/04/18 06:43:39;;;;;;;6.05;3.95;;;;;;;4.25;79.76;98341.13;4904247;28;102765;-64
2024/04/18 06:46:05;;;;;;;5.25;3.90;;;;;;;4.05;79.49;98341.09;4905920;28;103192;-65
2024/04/18 06:48:33;;;;;;;5.47;4.20;;;;;;;4.24;79.83;98339.47;4933298;28;103223;-73
2024/04/18 06:50:59;;;;;;;6.13;4.30;;;;;;;4.27;78.72;98347.88;4903320;28;103510;-64
2024/04/18 06:53:24;;;;;;;6.22;4.78;;;;;;;4.42;80.55;98350.09;4921364;28;102993;-73
2024/04/18 06:55:50;;;;;;;7.07;4.90;;;;;;;4.30;80.53;98349.41;4903563;28;102915;-64
2024/04/18 06:58:20;;;;;;;7.32;5.00;;;;;;;4.46;80.03;98360.16;4899104;28;103416;-64
2024/04/18 07:00:47;;;;;;;6.53;4.97;;;;;;;4.34;80.86;98355.19;4919490;28;104003;-64
2024/04/18 07:03:14;;;;;;;7.35;5.05;;;;;;;4.38;80.46;98352.16;4898878;28;102885;-64
2024/04/18 07:05:49;;;;;;;6.38;4.72;;;;;;;4.65;80.36;98363.75;4919763;28;103216;-73
2024/04/18 07:08:21;;;;;;;7.70;4.72;;;;;;;4.61;79.60;98367.63;4911882;28;103807;-74
2024/04/18 07:10:49;;;;;;;9.55;4.50;;;;;;;4.63;78.39;98365.72;4917722;28;103433;-65
2024/04/18 07:13:28;;;;;;;6.22;4.40;;;;;;;4.69;78.47;98365.16;4904934;28;102837;-65
2024/04/18 07:44:11;;;;;;;7.57;4.05;;;;;;;5.62;75.53;98399.50;4916188;28;110239;-73
2024/04/18 07:46:39;;;;;;;6.60;4.72;;;;;;;5.55;75.20;98408.09;4918077;28;102993;-72
2024/04/18 07:49:07;;;;;;;8.35;5.15;;;;;;;5.61;75.17;98418.06;4902847;28;102860;-73
2024/04/18 07:51:33;;;;;;;5.78;3.80;;;;;;;5.60;74.66;98413.75;4913158;28;104097;-73
2024/04/18 07:53:59;;;;;;;8.18;4.50;;;;;;;5.58;75.44;98418.31;4890576;28;103304;-65
2024/04/18 07:56:27;;;;;;;10.48;4.53;;;;;;;5.67;76.31;98420.09;4905380;28;103035;-65
2024/04/18 07:58:53;;;;;;;6.65;4.25;;;;;;;5.39;74.91;98424.47;4903788;28;103039;-64
2024/04/18 08:01:18;;;;;;;6.75;4.60;;;;;;;5.30;75.23;98426.13;4933375;28;103207;-65
2024/04/18 08:03:44;;;;;;;7.18;4.53;;;;;;;5.35;75.89;98434.44;4917068;28;104194;-65
2024/04/18 08:06:10;;;;;;;7.18;4.35;;;;;;;5.14;75.19;98430.16;4922345;28;102820;-65
2024/04/18 08:43:14;;;;;;;3.45;2.40;;;;;;;5.69;76.32;98483.03;4913900;28;103393;-74
2024/04/18 10:32:17;;;;;;;5.07;3.35;;;;;;;6.60;75.99;98577.13;4924536;28;103496;-73
2024/04/18 10:34:44;;;;;;;7.57;4.20;;;;;;;6.22;75.19;98574.50;4912398;28;102762;-73
2024/04/18 10:37:19;;;;;;;8.20;4.57;;;;;;;6.35;75.85;98579.44;4887555;28;103177;-72
2024/04/18 11:03:28;;;;;;;7.70;3.63;;;;;;;8.93;70.42;98571.66;4924981;28;107440;-63
2024/04/18 11:06:00;;;;;;;8.10;3.92;;;;;;;8.93;66.87;98572.50;4912277;28;102873;-71
2024/04/18 11:08:26;;;;;;;8.18;4.32;;;;;;;10.11;69.47;98571.44;4885401;28;103179;-71
2024/04/18 11:10:52;;;;;;;5.38;3.88;;;;;;;9.81;68.37;98566.81;4916505;28;103234;-72
2024/04/18 11:13:23;;;;;;;5.32;3.95;;;;;;;9.94;67.90;98569.78;4920702;28;103132;-72
2024/04/18 11:15:49;;;;;;;6.45;4.30;;;;;;;9.07;67.07;98567.59;4913874;28;103248;-72
2024/04/18 11:18:15;;;;;;;7.93;4.55;;;;;;;9.61;67.15;98564.50;4922676;28;103803;-63
2024/04/18 11:20:42;;;;;;;6.53;4.32;;;;;;;10.57;64.18;98554.09;4904347;28;103964;-70
2024/04/18 11:23:08;;;;;;;7.45;4.53;;;;;;;10.40;64.93;98551.53;4906835;28;104366;-72
2024/04/18 11:25:37;;;;;;;7.47;4.32;;;;;;;9.99;63.69;98556.06;4901324;28;103028;-70
2024/04/18 11:28:06;;;;;;;7.70;4.20;;;;;;;10.03;65.29;98563.47;4891332;28;102790;-63
2024/04/18 11:30:38;;;;;;;7.35;4.00;;;;;;;9.43;66.75;98562.84;4871038;28;105578;-74
2024/04/18 11:33:04;;;;;;;8.85;4.30;;;;;;;9.13;67.96;98561.63;4901628;28;103438;-71
2024/04/18 11:35:32;;;;;;;7.25;3.92;;;;;;;7.36;67.50;98583.84;4890429;28;103040;-72
2024/04/18 11:38:08;;;;;;;6.63;4.43;;;;;;;6.19;76.45;98600.25;4889504;28;102871;-62
2024/04/18 11:40:34;;;;;;;7.60;3.72;;;;;;;5.90;74.60;98601.13;4904981;28;104697;-63
2024/04/18 11:43:01;;;;;;;5.60;3.55;;;;;;;5.81;77.11;98603.59;4901996;28;106142;-63
2024/04/18 11:45:27;;;;;;;6.13;3.42;;;;;;;6.73;75.33;98588.13;4903713;28;104488;-64
2024/04/18 11:47:57;;;;;;;6.07;3.80;;;;;;;7.06;74.10;98588.53;4895605;28;103842;-64
2024/04/18 11:50:25;;;;;;;5.30;3.53;;;;;;;7.27;75.55;98585.59;4884878;28;109936;-64
2024/04/18 11:52:53;;;;;;;3.50;2.47;;;;;;;7.63;73.57;98592.69;4900535;28;103293;-63
2024/04/18 11:55:28;;;;;;;4.68;3.20;;;;;;;7.16;72.93;98593.72;4889601;28;103949;-64
2024/04/18 11:57:58;;;;;;;6.20;3.08;;;;;;;7.68;74.35;98587.78;4880504;28;103837;-72
2024/04/18 12:00:36;;;;;;;5.00;3.40;;;;;;;7.46;76.37;98583.78;4901611;28;108396;-64
2024/04/18 12:03:09;;;;;;;4.65;2.55;;;;;;;7.38;74.57;98592.44;4884893;28;103213;-63
2024/04/18 12:05:52;;;;;;;6.80;3.10;;;;;;;8.05;73.86;98594.63;4890599;28;103318;-63
2024/04/18 12:08:18;;;;;;;5.28;3.70;;;;;;;8.04;72.64;98592.16;4902616;28;103130;-63
2024/04/18 12:10:44;;;;;;;5.38;3.10;;;;;;;8.77;73.39;98591.75;4920827;28;104175;-72
2024/04/18 12:13:09;;;;;;;5.35;3.40;;;;;;;8.74;71.89;98597.38;4912071;28;103249;-72
2024/04/18 12:15:53;;;;;;;6.65;3.83;;;;;;;9.50;69.05;98588.63;4890766;28;102844;-71
2024/04/18 12:18:27;;;;;;;5.90;3.80;;;;;;;9.40;68.79;98594.88;4899283;28;102925;-73
2024/04/18 12:20:56;;;;;;;6.55;4.10;;;;;;;9.56;69.09;98599.41;4900350;28;105318;-71
2024/04/18 12:23:42;;;;;;;4.47;2.83;;;;;;;9.32;69.88;98599.34;4891921;28;108189;-71
2024/04/18 12:26:11;;;;;;;5.70;3.65;;;;;;;9.56;69.50;98603.84;4890004;28;102921;-72
2024/04/18 12:28:43;;;;;;;6.63;3.97;;;;;;;9.98;67.21;98610.78;4883256;28;102852;-71
2024/04/18 12:31:09;;;;;;;6.35;3.55;;;;;;;9.66;67.58;98603.69;4900762;28;104055;-71
2024/04/18 12:33:47;;;;;;;6.97;3.80;;;;;;;9.15;66.15;98607.22;4914473;28;103296;-71
2024/04/18 12:36:14;;;;;;;4.97;3.53;;;;;;;10.23;67.63;98605.47;4903383;28;103167;-65
2024/04/18 12:38:44;;;;;;;6.40;3.50;;;;;;;10.93;64.68;98599.47;4904357;28;103348;-63
2024/04/18 12:41:14;;;;;;;7.63;3.63;;;;;;;10.55;63.62;98598.47;4900727;28;103351;-71
2024/04/18 12:43:44;;;;;;;7.38;3.55;;;;;;;11.22;64.15;98595.34;4894321;28;102761;-73
2024/04/18 12:46:29;;;;;;;4.78;3.00;;;;;;;11.41;62.22;98595.91;4916963;28;102864;-63
2024/04/18 12:48:56;;;;;;;3.85;2.92;;;;;;;12.11;59.45;98588.75;4903302;28;103622;-64
2024/04/18 12:51:22;;;;;;;4.72;3.00;;;;;;;11.88;60.75;98591.41;4883976;28;110382;-64
2024/04/18 12:53:48;;;;;;;4.70;2.58;;;;;;;11.41;59.69;98593.25;4900952;28;103324;-63
2024/04/18 12:56:18;;;;;;;3.90;2.40;;;;;;;11.66;59.41;98593.91;4860495;28;103684;-63
2024/04/18 12:58:44;;;;;;;4.60;2.38;;;;;;;9.76;58.57;98591.94;4914632;28;102896;-63
2024/04/18 13:01:11;;;;;;;4.80;2.40;;;;;;;9.44;62.16;98598.03;4883345;28;103710;-63
2024/04/18 13:03:41;;;;;;;3.72;2.63;;;;;;;8.95;64.12;98596.94;4890199;28;103530;-63
2024/04/18 13:06:26;;;;;;;3.42;2.40;;;;;;;9.83;63.74;98589.47;4900186;28;103388;-64
2024/04/18 13:08:53;;;;;;;3.17;2.25;;;;;;;9.84;60.91;98588.47;4900250;28;103099;-72
2024/04/18 13:11:40;;;;;;;2.17;1.80;;;;;;;10.08;60.97;98582.31;4903426;28;107792;-73
2024/04/18 13:14:06;;;;;;;3.35;1.98;;;;;;;9.88;60.12;98586.34;4894474;28;103157;-64
2024/04/18 13:16:33;;;;;;;3.45;1.83;;;;;;;9.63;59.92;98584.50;4879349;28;103452;-64
2024/04/18 13:19:11;;;;;;;7.93;1.98;;;;;;;9.99;58.86;98575.41;4873365;28;103309;-73
2024/04/18 13:21:37;;;;;;;4.13;2.10;;;;;;;9.94;58.62;98581.19;4898109;28;105683;-64
2024/04/18 13:24:04;;;;;;;3.70;1.80;;;;;;;10.72;59.82;98573.56;4878270;28;106357;-65
2024/04/18 13:26:52;;;;;;;2.67;1.80;;;;;;;10.51;59.77;98581.28;4901416;28;102962;-65
2024/04/18 13:29:23;;;;;;;2.83;1.58;;;;;;;10.03;60.28;98579.34;4875455;28;103190;-73
2024/04/18 13:32:09;;;;;;;1.95;1.40;;;;;;;9.86;56.77;98572.44;4902909;28;104845;-73
2024/04/18 13:34:34;;;;;;;2.35;1.60;;;;;;;10.07;55.76;98578.06;4892266;28;104017;-75
2024/04/18 13:37:00;;;;;;;1.65;1.35;;;;;;;10.07;55.66;98575.41;4898568;28;103927;-74
2024/04/18 13:39:44;;;;;;;2.72;1.52;;;;;;;10.51;55.85;98563.56;4891813;28;104667;-66
2024/04/18 13:42:11;;;;;;;2.00;1.48;;;;;;;10.00;57.57;98566.47;4879260;28;105403;-65
2024/04/18 13:44:54;;;;;;;3.25;2.05;;;;;;;10.19;59.05;98577.69;4893706;28;104849;-74
2024/04/18 13:47:42;;;;;;;3.85;2.25;;;;;;;9.85;59.39;98570.78;4918494;28;102722;-73
2024/04/18 13:50:08;;;;;;;2.63;2.00;;;;;;;10.18;58.05;98570.72;4909476;28;102881;-74
2024/04/18 13:52:34;;;;;;;3.15;2.00;;;;;;;10.22;57.52;98582.66;4913508;28;103610;-65
2024/04/18 13:55:03;;;;;;;2.65;1.80;;;;;;;9.76;58.63;98573.44;4912945;28;103192;-65
2024/04/18 13:57:34;;;;;;;2.75;1.63;;;;;;;9.82;57.57;98582.53;4902260;28;103422;-65
2024/04/18 14:00:26;;;;;;;3.53;1.80;;;;;;;10.59;58.21;98581.25;4911450;28;102790;-65
2024/04/18 14:03:10;;;;;;;2.63;1.65;;;;;;;10.24;57.88;98583.28;4921275;28;103151;-73
2024/04/18 14:05:58;;;;;;;;;;;;;;;10.63;58.71;98582.56;4920908;28;103670;-65
2024/04/18 14:08:37;;;;;;;2.05;1.52;;;;;;;10.70;55.61;98588.84;4928871;28;103430;-65
2024/04/18 14:11:26;;;;;;;3.35;1.60;;;;;;;10.47;56.28;98574.66;4911530;28;103073;-65
2024/04/18 14:14:06;;;;;;;2.53;1.70;;;;;;;10.29;58.52;98602.16;4894551;28;103616;-66
2024/04/18 14:19:32;;;;;;;2.35;1.60;;;;;;;9.94;52.33;98580.34;4916464;28;103173;-63
2024/04/18 14:22:06;;;;;;;3.75;1.63;;;;;;;10.57;53.99;98586.72;4906423;28;104086;-66
2024/04/18 14:24:32;;;;;;;3.63;1.48;;;;;;;9.95;56.19;98596.06;4921690;28;103356;-64
2024/04/18 14:26:58;;;;;;;2.30;1.45;;;;;;;9.32;58.48;98594.88;4919746;28;105487;-64
2024/04/18 14:29:24;;;;;;;2.38;1.70;;;;;;;8.88;61.24;98611.78;4902389;28;102878;-64
2024/04/18 14:31:56;;;;;;;3.95;1.95;;;;;;;8.50;63.30;98613.09;4919039;28;102950;-63
2024/04/18 14:34:24;;;;;;;4.72;2.17;;;;;;;8.23;66.70;98625.44;4901153;28;107718;-63
2024/04/18 14:36:50;;;;;;;5.00;2.30;;;;;;;7.71;69.21;98629.66;4918777;28;104301;-63
2024/04/18 14:39:16;;;;;;;12.43;5.50;;;;;;;7.33;69.63;98636.03;4901260;28;104245;-63
2024/04/18 14:41:44;;;;;;;9.35;5.20;;;;;;;7.30;69.82;98631.91;4924570;28;102767;-63
2024/04/18 14:44:10;;;;;;;4.68;2.97;;;;;;;7.55;71.28;98627.69;4917571;28;105377;-63
2024/04/18 14:46:39;;;;;;;4.90;2.67;;;;;;;8.12;71.62;98627.34;4901207;28;103384;-63
2024/04/18 14:49:26;;;;;;;3.17;2.10;;;;;;;7.34;70.05;98638.53;4929448;28;102778;-63
2024/04/18 14:51:55;;;;;;;3.45;1.90;;;;;;;7.13;72.49;98642.25;4897332;28;104093;-63
2024/04/18 14:54:26;;;;;;;3.60;2.03;;;;;;;7.04;70.38;98653.66;4916166;28;112493;-63
2024/04/18 14:56:54;;;;;;;1.58;1.30;;;;;;;7.46;72.76;98645.22;4902437;28;106022;-63
2024/04/18 14:59:36;;;;;;;3.30;1.50;;;;;;;7.44;70.76;98649.84;4918215;28;103230;-63
2024/04/18 15:02:04;;;;;;;3.35;1.55;;;;;;;7.57;70.10;98648.63;4896057;28;102986;-71
2024/04/18 15:04:30;;;;;;;2.75;1.60;;;;;;;7.93;71.30;98649.44;4889637;28;103339;-63
2024/04/18 15:07:35;;;;;;;2.30;1.38;;;;;;;8.00;71.11;98656.75;4893775;28;108606;-62
2024/04/18 15:10:14;;;;;;;2.47;1.40;;;;;;;7.56;71.72;98663.63;4882923;28;102840;-63
2024/04/18 15:12:55;;;;;;;3.20;1.10;;;;;;;7.40;70.71;98666.91;4909001;28;102924;-63
2024/04/18 15:15:22;;;;;;;3.22;1.70;;;;;;;7.41;70.44;98665.91;4896393;28;109973;-62
2024/04/18 15:17:48;;;;;;;2.13;1.20;;;;;;;7.56;69.82;98668.03;4910945;28;105650;-63
2024/04/18 15:20:14;;;;;;;3.28;1.65;;;;;;;7.46;70.14;98666.31;4911713;28;103882;-70
2024/04/18 15:23:02;;;;;;;3.47;1.80;;;;;;;7.55;70.75;98671.69;4913968;28;102965;-62
2024/04/18 15:25:29;;;;;;;1.75;1.45;;;;;;;6.93;70.34;98677.53;4898559;28;105904;-62
2024/04/18 15:27:57;;;;;;;5.72;1.75;;;;;;;6.65;72.53;98680.16;4898611;28;102993;-63
2024/04/18 15:30:25;;;;;;;3.40;1.77;;;;;;;6.67;74.24;98682.63;4911003;28;105411;-62
2024/04/18 15:32:51;;;;;;;4.00;1.70;;;;;;;6.70;74.27;98683.19;4916334;28;104079;-65
2024/04/18 15:35:20;;;;;;;2.45;1.70;;;;;;;6.35;75.81;98695.16;4899301;28;103595;-63
2024/04/18 15:38:05;;;;;;;2.97;1.80;;;;;;;6.17;76.84;98692.44;4901833;28;103116;-63
2024/04/18 15:40:32;;;;;;;1.85;1.30;;;;;;;6.16;78.22;98690.78;4914781;28;103742;-63
2024/04/18 15:43:04;;;;;;;2.10;1.40;;;;;;;6.30;77.01;98692.13;4898411;28;104421;-71
2024/04/18 15:45:36;;;;;;;2.45;1.45;;;;;;;6.49;74.28;98693.09;4903748;28;103240;-63
2024/04/18 15:48:20;;;;;;;2.22;1.60;;;;;;;7.06;76.48;98683.34;4917760;28;103186;-72
2024/04/18 15:50:52;;;;;;;2.70;1.35;;;;;;;7.19;74.08;98684.78;4884017;28;103396;-72
2024/04/18 15:53:27;;;;;;;3.15;1.33;;;;;;;7.17;74.45;98694.66;4916665;28;102943;-72
2024/04/18 15:56:04;;;;;;;3.13;1.70;;;;;;;7.37;75.20;98696.19;4916787;28;103223;-72
2024/04/18 15:58:50;;;;;;;3.42;1.60;;;;;;;7.58;73.30;98693.28;4909611;28;103348;-72
2024/04/18 16:01:16;;;;;;;2.25;1.52;;;;;;;7.51;72.95;98694.03;4911411;28;102771;-72
2024/04/18 16:04:02;;;;;;;;;;;;;;;7.58;73.45;98692.47;4931986;28;103300;-71
2024/04/18 16:06:27;;;;;;;;;;;;;;;7.54;73.96;98691.09;4915200;28;103476;-70
2024/04/18 16:09:11;;;;;;;4.18;1.80;;;;;;;7.73;73.66;98688.34;4876439;28;110802;-71
2024/04/18 16:11:38;;;;;;;3.85;2.20;;;;;;;7.55;74.37;98684.84;4918320;28;102865;-71
2024/04/18 16:14:04;;;;;;;2.03;1.40;;;;;;;7.93;74.15;98693.47;4916791;28;102988;-71
2024/04/18 16:16:33;;;;;;;3.00;1.55;;;;;;;8.12;73.08;98684.53;4919109;28;104423;-71
2024/04/18 16:19:05;;;;;;;4.18;1.42;;;;;;;8.17;71.06;98681.44;4903292;28;106748;-71
2024/04/18 16:21:32;;;;;;;2.90;1.70;;;;;;;8.03;72.00;98685.44;4906264;28;102930;-71
2024/04/18 16:24:00;;;;;;;5.18;1.60;;;;;;;8.09;70.93;98684.84;4915928;28;102830;-71
2024/04/18 16:26:34;;;;;;;2.20;1.50;;;;;;;8.25;69.27;98678.88;4893911;28;103203;-71
2024/04/18 16:29:03;;;;;;;6.07;2.08;;;;;;;8.24;67.04;98680.69;4937136;28;103250;-70
2024/04/18 16:31:38;;;;;;;3.58;2.08;;;;;;;8.31;68.32;98694.09;4921487;28;102815;-71
2024/04/18 16:34:16;;;;;;;2.17;1.40;;;;;;;8.44;68.81;98694.50;4904488;28;104997;-72
2024/04/18 16:36:45;;;;;;;2.90;1.70;;;;;;;8.28;67.64;98694.41;4910153;28;104093;-64
2024/04/18 16:39:15;;;;;;;1.75;1.15;;;;;;;7.70;66.59;98699.16;4894546;28;103311;-71
2024/04/18 16:41:41;;;;;;;2.40;1.48;;;;;;;7.87;68.68;98696.69;4914535;28;102840;-63
2024/04/18 16:44:10;;;;;;;2.08;1.20;;;;;;;7.83;68.30;98705.88;4921903;28;103311;-71
2024/04/18 16:46:37;;;;;;;3.28;1.73;;;;;;;7.83;68.21;98704.06;4911271;28;103320;-71
2024/04/18 16:49:03;;;;;;;3.13;1.55;;;;;;;7.72;67.70;98699.84;4919175;28;103068;-71
2024/04/18 16:51:29;;;;;;;2.53;1.30;;;;;;;7.60;67.38;98707.16;4901258;28;103104;-71
2024/04/18 17:08:11;;;;;;;3.83;1.35;;;;;;;7.58;70.48;98724.09;4926601;28;103031;-64
2024/04/18 17:10:39;;;;;;;1.98;1.23;;;;;;;7.64;70.32;98718.22;4937879;28;102876;-64
2024/04/18 17:13:24;;;;;;;1.77;1.10;;;;;;;7.66;70.47;98721.53;4910474;28;108016;-64
2024/04/18 17:16:10;;;;;;;1.60;1.13;;;;;;;7.70;70.26;98725.53;4921337;28;103342;-64
2024/04/18 17:18:44;;;;;;;2.55;1.48;;;;;;;7.39;72.17;98736.41;4916088;28;102847;-72
2024/04/18 17:21:10;;;;;;;2.53;1.38;;;;;;;7.47;71.87;98733.84;4924035;28;103302;-70
2024/04/18 17:23:36;;;;;;;4.43;2.45;;;;;;;7.42;72.18;98735.28;4909749;28;104573;-71
2024/04/18 17:26:02;;;;;;;4.07;1.65;;;;;;;7.51;71.75;98744.13;4889165;28;105080;-63
2024/04/18 17:28:27;;;;;;;3.00;1.85;;;;;;;7.49;71.15;98746.06;4906823;28;102859;-63
2024/04/18 17:31:00;;;;;;;2.60;1.50;;;;;;;7.53;71.71;98742.16;4917676;28;103277;-64
2024/04/18 17:33:25;;;;;;;4.72;1.65;;;;;;;7.58;72.01;98750.44;4904002;28;103127;-63
2024/04/18 17:36:00;;;;;;;3.10;1.70;;;;;;;7.47;70.94;98749.66;4901428;28;106564;-63
2024/04/18 17:38:56;;;;;;;4.53;2.20;;;;;;;7.53;71.25;98750.06;4900851;28;104545;-64
2024/04/18 17:41:31;;;;;;;3.50;1.75;;;;;;;7.54;71.93;98762.25;4929149;28;103025;-64
2024/04/18 17:44:16;;;;;;;2.65;1.77;;;;;;;7.18;70.12;98770.03;4912999;28;102955;-63
2024/04/18 17:46:58;;;;;;;2.88;1.77;;;;;;;7.21;72.07;98762.69;4924060;28;103669;-63
2024/04/18 17:49:25;;;;;;;3.13;1.90;;;;;;;7.27;71.29;98764.75;4926988;28;103691;-63
2024/04/18 17:51:51;;;;;;;3.28;2.30;;;;;;;7.07;72.58;98763.97;4900861;28;104371;-63
2024/04/18 17:54:18;;;;;;;3.25;2.03;;;;;;;7.15;72.18;98763.25;4900591;28;103551;-64
2024/04/18 17:56:44;;;;;;;3.72;1.90;;;;;;;7.20;71.76;98755.75;4921441;28;103695;-64
2024/04/18 17:59:13;;;;;;;3.15;1.90;;;;;;;7.17;72.24;98763.13;4918360;28;103283;-71
2024/04/18 18:01:43;;;;;;;2.17;1.60;;;;;;;7.07;72.40;98763.97;4905870;28;102760;-63
2024/04/18 18:04:11;;;;;;;3.63;2.50;;;;;;;6.86;72.96;98768.63;4914470;28;105912;-63
2024/04/18 18:06:37;;;;;;;3.13;1.73;;;;;;;6.88;72.99;98769.31;4901157;28;106242;-72
2024/04/18 18:09:03;;;;;;;4.35;1.75;;;;;;;6.76;73.08;98777.38;4919850;28;102752;-71
2024/04/18 18:11:29;;;;;;;3.25;2.05;;;;;;;6.75;73.44;98770.44;4925971;28;102751;-72
2024/04/18 18:13:57;;;;;;;2.88;1.65;;;;;;;6.64;73.05;98775.84;4904828;28;107000;-64
2024/04/18 18:16:27;;;;;;;3.67;2.03;;;;;;;6.52;73.56;98777.00;4921910;28;105946;-63
2024/04/18 18:18:55;;;;;;;4.38;2.40;;;;;;;6.44;73.58;98777.69;4919813;28;102826;-63
2024/04/18 18:21:22;;;;;;;6.57;3.10;;;;;;;6.13;74.43;98780.47;4919195;28;102973;-71
2024/04/18 18:23:48;;;;;;;7.13;3.35;;;;;;;6.14;74.94;98785.59;4921532;28;103377;-72